Time;durP1;ratioP1;P1;durP2;ratioP2;P2;SDS_P1;SDS_P2;PMS_P1;PMS_P2;Temp;Humidity;BMP_temperature;BMP_pressure;BME280_temperature;BME280_humidity;BME280_pressure;Samples;Min_cycle;Max_cycle;Signal;HPM_P1;HPM_P2
2023/03/27 00:00:45;;;;;;;6.88;0.90;;;4.80;99.90;;;;;;5005413;28;20500;-81
2023/03/27 00:03:12;;;;;;;10.45;1.40;;;4.80;99.90;;;;;;5014447;28;20531;-81
2023/03/27 00:05:39;;;;;;;6.50;1.02;;;4.80;99.90;;;;;;5014025;28;20416;-81
2023/03/27 00:08:08;;;;;;;8.10;0.90;;;4.90;99.90;;;;;;5005963;28;20412;-81
2023/03/27 00:10:34;;;;;;;7.60;0.90;;;4.90;99.90;;;;;;5016205;28;20415;-79
2023/03/27 00:13:02;;;;;;;7.68;1.05;;;4.90;99.90;;;;;;5026683;28;20739;-80
2023/03/27 00:15:31;;;;;;;5.75;0.77;;;4.90;99.90;;;;;;5048981;28;20482;-81
2023/03/27 00:18:06;;;;;;;7.00;1.08;;;4.90;99.90;;;;;;5008684;28;20542;-81
2023/03/27 00:20:36;;;;;;;8.38;1.20;;;4.80;99.90;;;;;;5009421;28;20421;-79
2023/03/27 00:23:03;;;;;;;7.95;0.90;;;4.80;99.90;;;;;;5008006;28;20791;-79
2023/03/27 00:25:29;;;;;;;8.07;1.00;;;4.80;99.90;;;;;;5010128;28;20506;-80
2023/03/27 00:27:57;;;;;;;9.25;1.10;;;4.70;99.90;;;;;;5015108;28;20421;-81
2023/03/27 00:30:25;;;;;;;11.03;1.70;;;4.70;99.90;;;;;;5017800;28;20917;-81
2023/03/27 00:32:53;;;;;;;10.32;1.30;;;4.70;99.90;;;;;;5013775;28;20404;-80
2023/03/27 00:35:19;;;;;;;9.45;1.13;;;4.70;99.90;;;;;;5001633;28;20446;-80
2023/03/27 00:37:45;;;;;;;8.88;0.93;;;4.70;99.90;;;;;;5014239;28;20484;-80
2023/03/27 00:40:14;;;;;;;6.05;0.95;;;4.70;99.90;;;;;;5017747;28;20435;-80
2023/03/27 00:42:39;;;;;;;6.47;0.90;;;4.60;99.90;;;;;;5013061;28;20425;-81
2023/03/27 00:45:06;;;;;;;7.22;0.80;;;4.60;99.90;;;;;;5001993;28;20409;-80
2023/03/27 00:47:36;;;;;;;6.80;1.00;;;4.60;99.90;;;;;;5005118;28;21333;-80
2023/03/27 00:50:11;;;;;;;7.90;1.38;;;4.70;99.90;;;;;;5019647;28;20449;-80
2023/03/27 00:52:43;;;;;;;6.10;0.82;;;4.70;99.90;;;;;;5010586;28;20417;-80
2023/03/27 00:55:14;;;;;;;11.13;1.20;;;4.70;99.90;;;;;;5017113;28;20823;-79
2023/03/27 00:57:43;;;;;;;7.63;1.07;;;4.80;99.90;;;;;;5004337;28;20496;-80
2023/03/27 01:00:15;;;;;;;6.45;1.00;;;4.70;99.90;;;;;;5004617;28;20792;-80
2023/03/27 01:02:43;;;;;;;11.00;1.10;;;4.70;99.90;;;;;;5005069;28;20516;-80
2023/03/27 01:05:10;;;;;;;8.02;1.05;;;4.70;99.90;;;;;;5007385;28;20416;-80
2023/03/27 01:07:36;;;;;;;6.22;0.95;;;4.70;99.90;;;;;;4992387;28;21079;-81
2023/03/27 01:10:05;;;;;;;6.13;0.93;;;4.60;99.90;;;;;;5003910;28;20424;-80
2023/03/27 01:13:03;;;;;;;8.20;0.70;;;4.60;99.90;;;;;;5004586;28;20912;-80
2023/03/27 01:15:53;;;;;;;5.78;0.60;;;4.60;99.90;;;;;;5004815;28;20854;-80
2023/03/27 01:18:45;;;;;;;5.40;0.77;;;4.60;99.90;;;;;;5006174;28;21009;-80
2023/03/27 01:21:13;;;;;;;6.13;0.90;;;4.60;99.90;;;;;;4996172;28;20500;-80
2023/03/27 01:23:58;;;;;;;8.15;1.10;;;4.60;99.90;;;;;;5012448;28;20752;-80
2023/03/27 01:26:50;;;;;;;6.28;0.85;;;4.60;99.90;;;;;;5036992;28;20496;-79
2023/03/27 01:29:37;;;;;;;8.80;1.13;;;4.60;99.90;;;;;;5005073;28;20959;-79
2023/03/27 01:32:09;;;;;;;10.20;1.30;;;4.50;99.90;;;;;;5001743;28;20409;-79
2023/03/27 01:35:14;;;;;;;9.30;1.50;;;4.50;99.90;;;;;;4990502;28;20421;-79
2023/03/27 01:38:08;;;;;;;6.40;0.88;;;4.50;99.90;;;;;;5007292;28;20935;-80
2023/03/27 01:40:57;;;;;;;7.97;0.93;;;4.50;99.90;;;;;;4981964;28;20451;-79
2023/03/27 01:43:38;;;;;;;8.75;1.00;;;4.50;99.90;;;;;;5004689;28;20437;-80
2023/03/27 01:46:11;;;;;;;8.20;1.02;;;4.50;99.90;;;;;;5009180;28;20443;-79
2023/03/27 01:48:44;;;;;;;6.13;1.10;;;4.40;99.90;;;;;;5008913;28;20405;-79
2023/03/27 01:51:33;;;;;;;7.78;0.98;;;4.40;99.90;;;;;;5009224;28;20417;-79
2023/03/27 01:54:27;;;;;;;7.10;1.10;;;4.50;99.90;;;;;;5002352;28;20409;-79
2023/03/27 01:57:22;;;;;;;7.70;1.05;;;4.50;99.90;;;;;;5045270;28;20496;-80
2023/03/27 01:59:54;;;;;;;6.47;1.10;;;4.50;99.90;;;;;;5017047;27;20445;-80
2023/03/27 02:02:26;;;;;;;7.47;0.80;;;4.40;99.90;;;;;;5008274;28;20413;-80
2023/03/27 02:05:16;;;;;;;4.80;1.07;;;4.50;99.90;;;;;;5011571;28;20493;-80
2023/03/27 02:07:48;;;;;;;6.88;0.80;;;4.50;99.90;;;;;;5005780;28;21405;-80
2023/03/27 02:10:20;;;;;;;7.05;0.90;;;4.50;99.90;;;;;;5005759;28;20417;-80
2023/03/27 02:12:53;;;;;;;6.05;0.82;;;4.60;99.90;;;;;;5006495;28;20939;-81
2023/03/27 02:15:21;;;;;;;4.20;0.70;;;4.60;99.90;;;;;;5006512;28;20419;-81
2023/03/27 02:17:55;;;;;;;6.45;1.00;;;4.60;99.90;;;;;;5006962;28;20448;-80
2023/03/27 02:20:22;;;;;;;5.72;1.20;;;4.50;99.90;;;;;;5005944;28;20765;-80
2023/03/27 02:22:49;;;;;;;6.22;0.88;;;4.30;99.90;;;;;;4998771;28;20462;-80
2023/03/27 02:25:22;;;;;;;6.43;0.73;;;4.10;99.90;;;;;;5006148;28;20939;-81
2023/03/27 02:27:56;;;;;;;5.60;0.80;;;4.00;99.90;;;;;;5006884;28;20440;-78
2023/03/27 02:30:44;;;;;;;7.70;0.70;;;3.90;99.90;;;;;;5005975;28;20424;-80
2023/03/27 02:33:24;;;;;;;4.72;0.70;;;3.80;99.90;;;;;;5005697;28;20424;-79
2023/03/27 02:36:15;;;;;;;2.60;0.50;;;3.80;99.90;;;;;;5006348;28;20417;-80
2023/03/27 02:39:06;;;;;;;4.22;0.82;;;3.70;99.90;;;;;;5006848;28;20433;-81
2023/03/27 02:41:46;;;;;;;3.25;0.63;;;3.70;99.90;;;;;;4996346;28;20971;-80
2023/03/27 02:44:35;;;;;;;5.18;0.57;;;3.70;99.90;;;;;;5006861;28;20413;-80
2023/03/27 02:47:08;;;;;;;5.53;0.90;;;3.70;99.90;;;;;;5018265;28;21726;-80
2023/03/27 02:49:39;;;;;;;4.53;0.50;;;3.70;99.90;;;;;;5007370;28;20429;-80
2023/03/27 02:52:13;;;;;;;5.95;1.00;;;3.60;99.90;;;;;;5064207;28;20405;-80
2023/03/27 02:54:45;;;;;;;5.93;0.90;;;3.60;99.90;;;;;;5007851;28;20477;-80
2023/03/27 02:57:17;;;;;;;4.07;0.65;;;3.50;99.90;;;;;;5007143;28;20791;-80
2023/03/27 02:59:50;;;;;;;5.93;0.80;;;3.50;99.90;;;;;;5004832;28;20857;-80
2023/03/27 03:02:21;;;;;;;4.85;0.90;;;3.50;99.90;;;;;;5006181;28;20482;-80
2023/03/27 03:04:55;;;;;;;5.20;0.90;;;3.40;99.90;;;;;;4996703;28;20409;-80
2023/03/27 03:07:25;;;;;;;5.53;1.00;;;3.30;99.90;;;;;;5005626;28;20471;-80
2023/03/27 03:09:51;;;;;;;5.60;0.80;;;3.30;99.90;;;;;;5008352;28;20416;-80
2023/03/27 03:12:17;;;;;;;5.45;0.90;;;3.30;99.90;;;;;;5066637;28;20407;-79
2023/03/27 03:14:43;;;;;;;7.43;1.20;;;3.20;99.90;;;;;;5006863;28;20413;-80
2023/03/27 03:17:10;;;;;;;7.32;1.10;;;3.20;99.90;;;;;;5009685;28;20406;-80
2023/03/27 03:19:36;;;;;;;11.57;1.42;;;3.30;99.90;;;;;;5006877;28;20444;-80
2023/03/27 03:22:02;;;;;;;6.40;1.50;;;3.20;99.90;;;;;;5006014;28;20413;-80
2023/03/27 03:24:28;;;;;;;6.20;1.23;;;3.30;99.90;;;;;;5006783;28;20871;-79
2023/03/27 03:26:54;;;;;;;10.45;1.20;;;3.30;99.90;;;;;;5012909;28;20443;-81
2023/03/27 03:29:20;;;;;;;9.03;1.50;;;3.30;99.90;;;;;;5010529;28;20484;-80
2023/03/27 03:31:45;;;;;;;8.97;1.43;;;3.40;99.90;;;;;;5005709;28;20515;-80
2023/03/27 03:34:14;;;;;;;9.52;1.48;;;3.40;99.90;;;;;;5005370;28;20912;-81
2023/03/27 03:36:40;;;;;;;8.38;1.48;;;3.50;99.90;;;;;;5006688;28;20413;-81
2023/03/27 03:39:07;;;;;;;5.32;1.30;;;3.50;99.90;;;;;;5005569;28;20435;-81
2023/03/27 03:41:32;;;;;;;6.40;1.00;;;3.50;99.90;;;;;;5006435;28;20904;-82
2023/03/27 03:43:58;;;;;;;6.88;1.20;;;3.60;99.90;;;;;;5006548;28;20412;-81
2023/03/27 03:46:24;;;;;;;7.80;1.02;;;3.60;99.90;;;;;;5008404;28;20406;-81
2023/03/27 03:48:50;;;;;;;8.50;1.50;;;3.60;99.90;;;;;;5006034;28;20412;-81
2023/03/27 03:51:15;;;;;;;8.73;1.50;;;3.60;99.90;;;;;;5008537;28;20447;-80
2023/03/27 03:53:41;;;;;;;9.65;1.45;;;3.70;99.90;;;;;;5004822;28;20413;-81
2023/03/27 03:56:07;;;;;;;7.50;1.37;;;3.70;99.90;;;;;;5004325;28;20421;-81
2023/03/27 03:58:32;;;;;;;9.15;1.50;;;3.60;99.90;;;;;;5006689;28;20428;-81
2023/03/27 04:00:58;;;;;;;7.95;1.20;;;3.60;99.90;;;;;;5005296;28;20766;-80
2023/03/27 04:03:30;;;;;;;7.77;1.23;;;3.50;99.90;;;;;;5005984;28;20496;-80
2023/03/27 04:06:06;;;;;;;6.80;1.25;;;3.40;99.90;;;;;;5006656;28;20418;-80
2023/03/27 04:08:33;;;;;;;12.05;2.15;;;3.30;99.90;;;;;;5006376;28;20402;-80
2023/03/27 04:10:59;;;;;;;8.02;2.08;;;3.20;99.90;;;;;;5008862;28;20459;-80
2023/03/27 04:13:24;;;;;;;12.27;2.05;;;3.20;99.90;;;;;;5008287;28;20412;-80
2023/03/27 04:15:51;;;;;;;7.80;1.50;;;3.10;99.90;;;;;;5008633;28;20409;-81
2023/03/27 04:18:18;;;;;;;7.53;1.40;;;3.10;99.90;;;;;;5004471;28;20428;-81
2023/03/27 04:20:48;;;;;;;8.10;1.25;;;3.10;99.90;;;;;;5005958;28;20451;-81
2023/03/27 04:23:17;;;;;;;9.17;1.80;;;3.10;99.90;;;;;;5009191;28;20915;-81
2023/03/27 04:25:47;;;;;;;6.60;1.42;;;3.10;99.90;;;;;;5005020;28;20404;-81
2023/03/27 04:28:16;;;;;;;10.68;1.95;;;3.10;99.90;;;;;;5007917;28;20420;-81
2023/03/27 04:30:43;;;;;;;9.70;1.85;;;3.00;99.90;;;;;;5004950;28;20412;-81
2023/03/27 04:33:17;;;;;;;13.10;1.80;;;3.00;99.90;;;;;;4988403;28;20425;-81
2023/03/27 04:35:44;;;;;;;9.65;1.60;;;3.00;99.90;;;;;;4994158;28;20757;-81
2023/03/27 04:38:10;;;;;;;7.97;1.73;;;3.00;99.90;;;;;;5004821;28;20496;-81
2023/03/27 04:40:37;;;;;;;10.15;1.42;;;3.00;99.90;;;;;;5004258;28;20480;-81
2023/03/27 04:43:02;;;;;;;13.38;2.00;;;2.90;99.90;;;;;;5009588;28;20414;-81
2023/03/27 04:45:28;;;;;;;8.20;1.73;;;2.90;99.90;;;;;;5005019;28;20417;-81
2023/03/27 04:47:54;;;;;;;10.37;1.37;;;2.90;99.90;;;;;;5007087;28;20994;-80
2023/03/27 04:50:20;;;;;;;9.15;1.75;;;2.90;99.90;;;;;;5003661;28;20444;-80
2023/03/27 04:52:46;;;;;;;8.98;1.63;;;2.90;99.90;;;;;;5007489;28;20450;-81
2023/03/27 04:55:11;;;;;;;9.85;1.10;;;3.00;99.90;;;;;;5007379;28;20904;-81
2023/03/27 04:57:38;;;;;;;6.00;0.80;;;3.00;99.90;;;;;;5007659;28;20417;-81
2023/03/27 05:00:14;;;;;;;6.50;0.60;;;3.00;99.90;;;;;;5006776;28;20440;-79
2023/03/27 05:02:40;;;;;;;5.32;0.68;;;3.10;99.90;;;;;;5009072;28;20429;-79
2023/03/27 05:05:07;;;;;;;4.82;0.60;;;3.20;99.90;;;;;;5007707;28;20405;-80
2023/03/27 05:07:33;;;;;;;4.30;0.50;;;3.30;99.90;;;;;;5006486;28;20413;-79
2023/03/27 05:10:00;;;;;;;5.45;0.50;;;3.40;99.90;;;;;;5010522;28;20412;-80
2023/03/27 05:12:27;;;;;;;6.63;0.65;;;3.50;99.90;;;;;;4994032;28;20510;-80
2023/03/27 05:14:52;;;;;;;4.97;0.67;;;3.50;99.90;;;;;;5009081;28;20491;-81
2023/03/27 05:17:19;;;;;;;5.72;0.73;;;3.50;99.90;;;;;;5012035;28;21169;-79
2023/03/27 05:19:45;;;;;;;5.80;0.73;;;3.60;99.90;;;;;;5008638;28;20432;-80
2023/03/27 05:22:12;;;;;;;8.98;1.10;;;3.60;99.90;;;;;;5009108;28;20911;-80
2023/03/27 05:24:38;;;;;;;10.90;1.25;;;3.60;99.90;;;;;;5007918;28;20421;-80
2023/03/27 05:27:04;;;;;;;12.13;1.15;;;3.60;99.90;;;;;;5013587;28;20460;-80
2023/03/27 05:29:30;;;;;;;8.20;1.27;;;3.60;99.90;;;;;;5010678;28;20448;-80
2023/03/27 05:31:55;;;;;;;5.67;0.70;;;3.70;99.90;;;;;;5007748;28;20409;-80
2023/03/27 05:34:21;;;;;;;10.15;1.20;;;3.80;99.90;;;;;;5009453;28;20403;-79
2023/03/27 05:36:48;;;;;;;5.43;0.73;;;3.80;99.90;;;;;;5010412;28;20413;-80
2023/03/27 05:39:14;;;;;;;7.82;1.00;;;3.90;99.90;;;;;;5009683;28;20432;-80
2023/03/27 05:41:40;;;;;;;5.57;0.60;;;4.00;99.90;;;;;;5008663;28;20412;-79
2023/03/27 05:44:06;;;;;;;6.80;0.60;;;4.00;99.90;;;;;;5009270;28;20490;-80
2023/03/27 05:46:31;;;;;;;5.30;0.70;;;3.90;99.90;;;;;;5012461;28;20796;-81
2023/03/27 05:49:00;;;;;;;3.73;0.50;;;3.90;99.90;;;;;;5008720;28;20534;-80
2023/03/27 05:51:26;;;;;;;5.17;0.50;;;3.90;99.90;;;;;;5010043;28;20414;-80
2023/03/27 05:53:52;;;;;;;5.77;0.80;;;3.90;99.90;;;;;;5009177;28;20441;-80
2023/03/27 05:56:17;;;;;;;5.90;0.80;;;3.80;99.90;;;;;;5006242;28;20441;-80
2023/03/27 05:58:43;;;;;;;4.18;0.80;;;3.80;99.90;;;;;;5006874;28;20433;-78
2023/03/27 06:01:10;;;;;;;4.67;0.60;;;3.80;99.90;;;;;;5006629;28;20478;-78
2023/03/27 06:03:37;;;;;;;6.28;0.45;;;3.80;99.90;;;;;;5000064;28;20505;-80
2023/03/27 06:06:10;;;;;;;4.72;0.68;;;3.70;99.90;;;;;;5006537;28;20424;-79
2023/03/27 06:08:36;;;;;;;5.90;0.60;;;3.70;99.90;;;;;;5006737;28;20421;-81
2023/03/27 06:11:12;;;;;;;3.00;0.50;;;3.80;99.90;;;;;;5006639;28;20409;-80
2023/03/27 06:13:38;;;;;;;5.40;0.60;;;3.90;99.90;;;;;;5006964;28;20470;-80
2023/03/27 06:16:04;;;;;;;5.55;0.60;;;3.90;99.90;;;;;;5007835;28;20417;-80
2023/03/27 06:18:31;;;;;;;4.88;0.60;;;3.90;99.90;;;;;;5007828;28;20491;-81
2023/03/27 06:20:57;;;;;;;7.25;0.98;;;3.90;99.90;;;;;;5006242;28;20452;-81
2023/03/27 06:23:23;;;;;;;5.27;0.43;;;3.90;99.90;;;;;;5008142;28;20856;-80
2023/03/27 06:25:50;;;;;;;8.77;0.93;;;3.90;99.90;;;;;;5007190;28;20441;-80
2023/03/27 06:28:15;;;;;;;7.90;1.00;;;3.80;99.90;;;;;;5008987;28;20456;-80
2023/03/27 06:30:41;;;;;;;8.27;0.80;;;3.80;99.90;;;;;;5007338;28;20437;-80
2023/03/27 06:33:07;;;;;;;8.50;1.10;;;3.80;99.90;;;;;;5007956;28;20428;-80
2023/03/27 06:35:33;;;;;;;9.77;1.53;;;3.80;99.90;;;;;;5007446;27;20417;-80
2023/03/27 06:38:03;;;;;;;8.83;1.53;;;3.90;99.90;;;;;;5007637;28;20818;-80
2023/03/27 06:40:31;;;;;;;9.43;1.20;;;4.00;99.90;;;;;;4994069;28;20520;-80
2023/03/27 06:43:01;;;;;;;8.43;0.93;;;4.10;99.90;;;;;;5007734;28;20405;-80
2023/03/27 06:45:32;;;;;;;8.63;1.38;;;4.20;99.90;;;;;;4978647;28;20421;-80
2023/03/27 06:48:01;;;;;;;10.20;1.30;;;4.40;99.90;;;;;;5005813;28;20413;-80
2023/03/27 06:50:29;;;;;;;9.18;1.23;;;4.50;99.90;;;;;;5005636;28;20413;-80
2023/03/27 06:52:55;;;;;;;6.50;1.00;;;4.50;99.90;;;;;;5005381;28;20447;-80
2023/03/27 06:55:22;;;;;;;8.05;1.08;;;4.60;99.90;;;;;;5007718;28;20500;-80
2023/03/27 06:57:50;;;;;;;8.68;1.10;;;4.60;99.90;;;;;;5006472;28;20405;-80
2023/03/27 07:00:18;;;;;;;7.78;1.02;;;4.60;99.90;;;;;;5007613;28;20429;-80
2023/03/27 07:02:47;;;;;;;10.18;1.27;;;4.60;99.90;;;;;;5010877;28;20435;-80
2023/03/27 07:05:14;;;;;;;7.75;1.00;;;4.70;99.90;;;;;;5009421;28;20405;-80
2023/03/27 07:07:41;;;;;;;9.52;1.05;;;4.80;99.90;;;;;;5011492;28;20752;-80
2023/03/27 07:10:07;;;;;;;8.93;1.73;;;4.80;99.90;;;;;;5008360;28;20409;-81
2023/03/27 07:12:33;;;;;;;7.97;1.15;;;4.80;99.90;;;;;;5007620;28;20482;-80
2023/03/27 07:14:59;;;;;;;9.38;1.30;;;4.80;99.90;;;;;;5008792;28;20903;-80
2023/03/27 07:17:25;;;;;;;6.70;0.82;;;4.90;99.90;;;;;;5010046;28;20420;-80
2023/03/27 07:19:51;;;;;;;8.10;1.30;;;4.90;99.90;;;;;;5008760;28;20485;-80
2023/03/27 07:22:16;;;;;;;10.60;1.27;;;5.00;99.90;;;;;;5011916;28;20407;-81
2023/03/27 07:24:42;;;;;;;9.02;1.33;;;5.10;99.90;;;;;;5007845;28;20496;-80
2023/03/27 07:27:08;;;;;;;11.77;1.50;;;5.20;99.90;;;;;;5011907;28;20435;-80
2023/03/27 07:29:35;;;;;;;9.03;1.37;;;5.10;99.90;;;;;;5008522;28;20496;-80
2023/03/27 07:32:02;;;;;;;10.90;1.40;;;5.10;99.90;;;;;;5006125;28;20518;-80
2023/03/27 07:34:28;;;;;;;7.45;1.50;;;4.90;99.90;;;;;;5005590;28;20500;-80
2023/03/27 07:36:56;;;;;;;7.20;0.80;;;4.90;99.90;;;;;;5004202;28;20430;-81
2023/03/27 07:39:22;;;;;;;3.97;0.57;;;4.80;99.90;;;;;;5005714;28;20533;-80
2023/03/27 07:41:47;;;;;;;2.50;0.40;;;4.80;99.90;;;;;;5005112;28;20496;-81
2023/03/27 07:44:13;;;;;;;3.83;0.70;;;4.80;99.90;;;;;;5005778;28;20413;-80
2023/03/27 07:46:38;;;;;;;4.87;0.50;;;4.80;99.90;;;;;;5006531;28;20450;-81
2023/03/27 07:49:04;;;;;;;5.57;0.77;;;4.90;99.90;;;;;;5006425;28;20405;-80
2023/03/27 07:51:30;;;;;;;5.73;0.63;;;4.90;99.90;;;;;;5006926;28;20784;-81
2023/03/27 07:53:57;;;;;;;6.57;0.70;;;5.00;99.90;;;;;;5005823;28;20404;-81
2023/03/27 07:56:23;;;;;;;4.25;0.80;;;5.10;99.90;;;;;;5006274;28;20409;-81
2023/03/27 07:58:50;;;;;;;5.73;0.70;;;5.10;99.90;;;;;;4989294;28;20432;-81
2023/03/27 08:01:16;;;;;;;6.10;0.63;;;5.20;99.90;;;;;;5005211;28;20444;-81
2023/03/27 08:03:42;;;;;;;5.97;0.80;;;5.20;99.90;;;;;;5006785;28;20432;-80
2023/03/27 08:06:08;;;;;;;5.50;0.60;;;5.20;99.90;;;;;;5006587;28;20436;-80
2023/03/27 08:08:33;;;;;;;4.57;0.60;;;5.20;99.90;;;;;;5004752;28;20477;-80
2023/03/27 08:11:01;;;;;;;6.40;0.80;;;5.20;99.90;;;;;;5005459;28;20907;-81
2023/03/27 08:13:28;;;;;;;7.47;0.70;;;5.30;99.90;;;;;;5005809;28;20911;-80
2023/03/27 08:16:03;;;;;;;6.50;0.85;;;5.30;99.90;;;;;;5006184;28;20409;-80
2023/03/27 08:18:29;;;;;;;8.57;1.10;;;5.40;99.90;;;;;;5005312;28;20440;-80
2023/03/27 08:20:57;;;;;;;11.02;1.27;;;5.40;99.90;;;;;;5005330;28;20401;-80
2023/03/27 08:23:26;;;;;;;8.00;1.05;;;5.40;99.90;;;;;;5005273;28;20424;-81
2023/03/27 08:25:53;;;;;;;9.38;1.00;;;5.40;99.90;;;;;;5004875;28;21102;-80
2023/03/27 08:28:19;;;;;;;5.97;1.00;;;5.50;99.90;;;;;;5005166;28;20447;-80
2023/03/27 08:30:45;;;;;;;7.13;1.00;;;5.50;99.90;;;;;;5004240;28;20503;-80
2023/03/27 08:33:11;;;;;;;6.60;1.00;;;5.60;99.90;;;;;;4988279;28;20466;-80
2023/03/27 08:35:37;;;;;;;5.55;0.88;;;5.70;99.90;;;;;;5004248;28;20421;-80
2023/03/27 08:38:03;;;;;;;7.63;0.90;;;5.70;99.90;;;;;;5004888;28;20915;-80
2023/03/27 08:40:32;;;;;;;7.18;1.10;;;5.70;99.90;;;;;;5004551;28;20459;-80
2023/03/27 08:43:03;;;;;;;10.77;1.20;;;5.80;99.90;;;;;;5003679;28;20405;-80
2023/03/27 08:45:39;;;;;;;9.27;0.73;;;5.80;99.90;;;;;;5004480;28;21150;-80
2023/03/27 08:48:23;;;;;;;5.30;0.50;;;5.80;99.90;;;;;;4987935;28;20424;-80
2023/03/27 08:51:16;;;;;;;5.75;0.70;;;6.00;99.90;;;;;;5005366;28;20447;-80
2023/03/27 08:54:01;;;;;;;2.88;0.50;;;6.20;99.90;;;;;;4995121;28;20993;-80
2023/03/27 08:56:27;;;;;;;4.50;0.83;;;6.40;99.90;;;;;;5003817;28;20445;-80
2023/03/27 08:58:53;;;;;;;4.00;0.60;;;6.50;99.90;;;;;;5004758;28;20531;-80
2023/03/27 09:01:43;;;;;;;6.45;0.77;;;6.70;99.90;;;;;;5004942;28;20436;-80
2023/03/27 09:04:12;;;;;;;7.50;1.15;;;6.80;99.90;;;;;;5006192;28;20516;-80
2023/03/27 09:06:53;;;;;;;6.32;0.75;;;6.80;99.90;;;;;;5004185;28;20427;-80
2023/03/27 09:09:48;;;;;;;9.05;1.02;;;6.50;99.90;;;;;;5004721;28;20413;-80
2023/03/27 09:12:33;;;;;;;6.68;1.05;;;6.20;99.90;;;;;;5004390;28;20422;-80
2023/03/27 09:15:27;;;;;;;5.15;0.60;;;6.00;99.90;;;;;;5004823;28;20447;-80
2023/03/27 09:18:00;;;;;;;3.28;0.43;;;5.90;99.90;;;;;;5005695;28;20433;-80
2023/03/27 09:20:32;;;;;;;3.78;0.40;;;6.10;99.90;;;;;;5005241;28;20428;-80
2023/03/27 09:23:23;;;;;;;7.72;1.00;;;6.30;99.90;;;;;;5003707;28;20535;-80
2023/03/27 09:25:54;;;;;;;9.23;0.95;;;7.00;99.90;;;;;;5002109;28;20452;-81
2023/03/27 09:28:24;;;;;;;5.88;0.60;;;8.00;99.90;;;;;;5008070;28;20785;-81
2023/03/27 09:30:49;;;;;;;8.48;0.98;;;8.80;99.90;;;;;;5004573;28;20431;-81
2023/03/27 09:33:16;;;;;;;5.05;0.60;;;9.50;99.90;;;;;;5004673;28;20421;-80
2023/03/27 09:35:42;;;;;;;5.45;0.82;;;9.60;99.90;;;;;;5004963;28;20417;-80
2023/03/27 09:38:36;;;;;;;5.27;0.93;;;9.30;99.90;;;;;;5007379;28;20804;-81
2023/03/27 09:41:07;;;;;;;5.40;0.80;;;9.00;99.90;;;;;;5003730;28;20508;-81
2023/03/27 09:43:59;;;;;;;5.95;0.80;;;9.10;99.90;;;;;;5001862;28;20413;-81
2023/03/27 09:46:27;;;;;;;4.55;0.43;;;8.90;99.90;;;;;;5004813;28;20405;-80
2023/03/27 09:49:19;;;;;;;5.20;0.70;;;8.40;99.90;;;;;;5003439;28;20659;-80
2023/03/27 09:51:50;;;;;;;6.85;0.70;;;8.10;99.90;;;;;;5060542;28;20409;-80
2023/03/27 09:54:19;;;;;;;5.50;0.55;;;8.70;99.90;;;;;;5004087;28;20409;-80
2023/03/27 09:56:52;;;;;;;4.43;0.50;;;9.30;99.90;;;;;;5006935;28;20413;-78
2023/03/27 09:59:40;;;;;;;4.23;0.57;;;9.90;99.90;;;;;;5011525;28;20508;-78
2023/03/27 10:02:17;;;;;;;5.10;0.52;;;10.80;99.90;;;;;;5040823;28;20435;-78
2023/03/27 10:04:57;;;;;;;4.65;0.45;;;11.30;99.90;;;;;;5005710;28;20413;-78
2023/03/27 10:07:24;;;;;;;4.53;0.70;;;10.70;99.30;;;;;;5007812;28;20421;-78
2023/03/27 10:10:14;;;;;;;5.90;0.60;;;10.30;99.90;;;;;;5006976;28;20416;-78
2023/03/27 10:12:40;;;;;;;5.45;0.65;;;10.70;99.90;;;;;;5006718;28;20920;-78
2023/03/27 10:15:31;;;;;;;4.32;0.50;;;11.50;99.90;;;;;;5006419;28;20432;-79
2023/03/27 10:17:58;;;;;;;7.23;0.70;;;11.90;99.90;;;;;;5013323;28;20435;-79
2023/03/27 10:20:24;;;;;;;4.07;0.50;;;11.40;99.90;;;;;;4990854;28;20441;-79
2023/03/27 10:22:55;;;;;;;5.22;0.50;;;10.80;99.90;;;;;;5005945;28;20461;-79
2023/03/27 10:25:33;;;;;;;8.13;0.80;;;10.30;99.90;;;;;;5007687;28;20825;-79
2023/03/27 10:28:20;;;;;;;4.57;0.60;;;9.60;99.90;;;;;;5007768;28;20444;-79
2023/03/27 10:30:56;;;;;;;7.70;0.88;;;9.00;99.90;;;;;;5005182;28;20417;-79
2023/03/27 10:33:39;;;;;;;6.03;0.80;;;9.20;99.90;;;;;;5006840;28;20413;-80
2023/03/27 10:36:07;;;;;;;7.60;0.60;;;10.00;99.90;;;;;;5007122;28;20802;-79
2023/03/27 10:38:35;;;;;;;5.25;0.65;;;10.60;99.90;;;;;;4989940;28;20423;-80
2023/03/27 10:41:08;;;;;;;6.22;1.00;;;11.30;99.90;;;;;;5006537;28;20416;-80
2023/03/27 10:43:41;;;;;;;5.45;0.80;;;11.00;96.80;;;;;;4989179;28;20449;-79
2023/03/27 10:46:13;;;;;;;5.32;0.60;;;10.20;99.20;;;;;;5007038;28;20449;-80
2023/03/27 10:48:51;;;;;;;3.40;0.50;;;10.10;99.90;;;;;;4996255;28;20417;-79
2023/03/27 10:51:45;;;;;;;4.93;0.60;;;10.70;99.90;;;;;;5005695;28;20843;-79
2023/03/27 10:54:22;;;;;;;4.82;0.55;;;11.30;97.50;;;;;;5008312;28;20470;-80
2023/03/27 10:57:01;;;;;;;4.47;0.60;;;11.70;97.70;;;;;;4996112;28;20924;-80
2023/03/27 10:59:35;;;;;;;7.20;0.90;;;12.10;93.70;;;;;;5005701;28;20520;-79
2023/03/27 11:02:37;;;;;;;6.88;0.88;;;12.60;94.50;;;;;;5005253;28;20417;-79
2023/03/27 11:05:11;;;;;;;4.22;0.60;;;12.70;93.80;;;;;;4995519;28;20417;-79
2023/03/27 11:08:11;;;;;;;5.35;0.75;;;13.00;92.00;;;;;;5009440;28;20415;-79
2023/03/27 11:10:42;;;;;;;7.60;1.00;;;13.30;93.20;;;;;;5009989;28;20425;-79
2023/03/27 11:13:14;;;;;;;15.43;1.63;;;13.50;90.50;;;;;;5007880;28;20422;-79
2023/03/27 11:15:48;;;;;;;5.95;0.63;;;13.30;90.00;;;;;;5007422;28;20416;-79
2023/03/27 11:18:24;;;;;;;5.20;1.00;;;12.90;83.80;;;;;;5007961;28;20413;-80
2023/03/27 11:20:58;;;;;;;4.70;1.00;;;12.60;90.00;;;;;;5005143;28;20445;-80
2023/03/27 11:23:31;;;;;;;6.25;1.23;;;12.20;89.10;;;;;;5009196;28;20437;-79
2023/03/27 11:26:01;;;;;;;4.95;0.85;;;11.40;90.20;;;;;;5006152;28;20409;-80
2023/03/27 11:28:45;;;;;;;6.13;1.15;;;11.40;92.60;;;;;;5007101;28;20421;-80
2023/03/27 11:31:14;;;;;;;3.92;0.52;;;12.00;88.60;;;;;;5006053;28;20413;-80
2023/03/27 11:33:50;;;;;;;4.80;0.57;;;12.50;85.30;;;;;;5006235;28;20413;-80
2023/03/27 11:36:36;;;;;;;5.97;0.82;;;13.00;88.40;;;;;;5006075;28;20450;-80
2023/03/27 11:39:17;;;;;;;7.45;0.90;;;13.20;85.30;;;;;;4997303;28;20437;-80
2023/03/27 11:41:50;;;;;;;7.22;0.80;;;13.60;87.90;;;;;;5007272;28;20507;-80
2023/03/27 11:44:15;;;;;;;7.82;1.15;;;13.70;86.20;;;;;;5004418;28;20419;-79
2023/03/27 11:47:02;;;;;;;6.95;0.93;;;13.90;88.00;;;;;;5006126;28;20400;-79
2023/03/27 11:49:34;;;;;;;4.90;0.73;;;13.90;84.10;;;;;;5008238;28;20409;-79
2023/03/27 11:52:37;;;;;;;4.97;0.80;;;13.00;80.00;;;;;;5007523;28;20429;-80
2023/03/27 11:55:23;;;;;;;6.90;1.08;;;12.80;82.00;;;;;;5007881;28;20420;-79
2023/03/27 11:58:08;;;;;;;7.75;0.80;;;13.10;84.40;;;;;;5060056;28;20421;-79
2023/03/27 12:00:46;;;;;;;6.38;1.00;;;12.70;80.00;;;;;;4991838;28;20501;-79
2023/03/27 12:03:31;;;;;;;5.28;0.70;;;11.90;81.50;;;;;;5030544;28;20413;-78
2023/03/27 12:06:08;;;;;;;4.38;0.60;;;11.70;83.50;;;;;;5019307;28;20442;-79
2023/03/27 12:08:39;;;;;;;4.30;0.60;;;12.30;78.30;;;;;;5004019;28;20444;-79
2023/03/27 12:11:09;;;;;;;5.50;0.70;;;12.70;76.30;;;;;;5006276;28;20424;-80
2023/03/27 12:13:52;;;;;;;6.07;1.30;;;13.00;80.20;;;;;;5008101;28;20424;-79
2023/03/27 12:17:02;;;;;;;4.60;0.82;;;13.40;74.10;;;;;;5004472;28;20987;-79
2023/03/27 12:19:49;;;;;;;6.07;1.10;;;13.70;77.80;;;;;;5007842;28;20437;-79
2023/03/27 12:22:15;;;;;;;5.85;0.90;;;13.40;79.10;;;;;;5011011;28;20832;-79
2023/03/27 12:25:17;;;;;;;3.80;0.45;;;12.80;81.80;;;;;;5049942;28;20404;-79
2023/03/27 12:27:48;;;;;;;4.15;0.65;;;12.50;80.70;;;;;;5007115;28;20425;-79
2023/03/27 12:30:17;;;;;;;6.65;1.27;;;12.10;81.50;;;;;;5006870;28;20523;-78
2023/03/27 12:33:02;;;;;;;3.67;0.68;;;12.40;82.20;;;;;;4987359;28;20920;-79
2023/03/27 12:35:34;;;;;;;5.25;0.50;;;13.00;79.00;;;;;;5002605;28;20425;-79
2023/03/27 12:38:22;;;;;;;6.43;0.80;;;12.60;75.80;;;;;;5004026;28;20904;-79
2023/03/27 12:40:51;;;;;;;4.20;0.68;;;12.20;80.80;;;;;;4996260;28;20440;-79
2023/03/27 12:43:17;;;;;;;4.47;0.70;;;12.60;81.30;;;;;;5004856;28;20424;-78
2023/03/27 12:46:28;;;;;;;6.90;0.73;;;12.90;83.10;;;;;;5004754;28;20478;-79
2023/03/27 12:49:06;;;;;;;5.30;0.65;;;13.30;82.40;;;;;;4996824;28;20976;-79
2023/03/27 12:52:03;;;;;;;8.50;0.90;;;13.40;78.40;;;;;;5004785;28;21302;-79
2023/03/27 12:54:31;;;;;;;8.80;0.80;;;13.20;77.70;;;;;;5005665;28;20416;-79
2023/03/27 12:57:15;;;;;;;7.45;1.10;;;12.70;80.60;;;;;;5004950;28;20521;-79
2023/03/27 12:59:53;;;;;;;8.10;1.23;;;12.60;82.20;;;;;;5003667;28;20444;-79
2023/03/27 13:02:56;;;;;;;6.33;1.00;;;12.60;83.40;;;;;;5004826;28;20416;-78
2023/03/27 13:05:57;;;;;;;6.97;1.20;;;12.30;83.30;;;;;;5001307;28;20421;-79
2023/03/27 13:08:40;;;;;;;9.05;1.10;;;11.90;84.70;;;;;;5028490;28;20445;-79
2023/03/27 13:11:48;;;;;;;7.45;1.10;;;11.80;87.40;;;;;;5006601;28;20413;-79
2023/03/27 13:14:24;;;;;;;8.48;1.08;;;11.70;88.30;;;;;;5004338;28;20433;-79
2023/03/27 13:17:07;;;;;;;9.33;0.90;;;12.40;90.30;;;;;;5008958;28;20420;-79
2023/03/27 13:19:33;;;;;;;7.30;1.20;;;12.40;83.40;;;;;;4994450;28;20974;-79
2023/03/27 13:22:13;;;;;;;6.97;0.80;;;11.80;85.90;;;;;;4991543;28;20447;-79